sensor_id;sensor_type;location;lat;lon;timestamp;P1;durP1;ratioP1;P2;durP2;ratioP2
21330;SDS011;10824;51.632;4.950;2023-08-24T00:00:22;1.60;;;0.90;;
21330;SDS011;10824;51.632;4.950;2023-08-24T00:02:49;3.97;;;1.50;;
21330;SDS011;10824;51.632;4.950;2023-08-24T00:05:16;2.40;;;1.15;;
21330;SDS011;10824;51.632;4.950;2023-08-24T00:07:43;2.33;;;0.93;;
21330;SDS011;10824;51.632;4.950;2023-08-24T00:10:10;3.08;;;1.30;;
21330;SDS011;10824;51.632;4.950;2023-08-24T00:12:37;4.45;;;1.67;;
21330;SDS011;10824;51.632;4.950;2023-08-24T00:15:07;2.35;;;1.38;;
21330;SDS011;10824;51.632;4.950;2023-08-24T00:17:35;2.42;;;1.40;;
21330;SDS011;10824;51.632;4.950;2023-08-24T00:20:03;5.68;;;1.20;;
21330;SDS011;10824;51.632;4.950;2023-08-24T00:22:33;2.17;;;1.60;;
21330;SDS011;10824;51.632;4.950;2023-08-24T00:25:00;3.28;;;1.50;;
21330;SDS011;10824;51.632;4.950;2023-08-24T00:27:27;1.58;;;1.33;;
21330;SDS011;10824;51.632;4.950;2023-08-24T00:29:54;5.45;;;1.35;;
21330;SDS011;10824;51.632;4.950;2023-08-24T00:32:22;2.55;;;1.45;;
21330;SDS011;10824;51.632;4.950;2023-08-24T00:34:49;7.18;;;1.45;;
21330;SDS011;10824;51.632;4.950;2023-08-24T00:37:16;3.40;;;1.27;;
21330;SDS011;10824;51.632;4.950;2023-08-24T00:39:43;4.57;;;1.23;;
21330;SDS011;10824;51.632;4.950;2023-08-24T00:42:10;3.15;;;1.55;;
21330;SDS011;10824;51.632;4.950;2023-08-24T00:44:41;2.80;;;1.43;;
21330;SDS011;10824;51.632;4.950;2023-08-24T00:47:10;5.25;;;1.40;;
21330;SDS011;10824;51.632;4.950;2023-08-24T00:49:38;2.53;;;1.20;;
21330;SDS011;10824;51.632;4.950;2023-08-24T00:52:05;5.50;;;1.10;;
21330;SDS011;10824;51.632;4.950;2023-08-24T00:54:32;3.30;;;1.48;;
21330;SDS011;10824;51.632;4.950;2023-08-24T00:57:01;3.25;;;0.95;;
21330;SDS011;10824;51.632;4.950;2023-08-24T00:59:28;4.13;;;2.15;;
21330;SDS011;10824;51.632;4.950;2023-08-24T01:01:55;3.22;;;1.23;;
21330;SDS011;10824;51.632;4.950;2023-08-24T01:04:23;2.03;;;1.10;;
21330;SDS011;10824;51.632;4.950;2023-08-24T01:06:51;2.13;;;0.93;;
21330;SDS011;10824;51.632;4.950;2023-08-24T01:09:19;2.30;;;1.30;;
21330;SDS011;10824;51.632;4.950;2023-08-24T01:17:05;4.63;;;1.40;;
21330;SDS011;10824;51.632;4.950;2023-08-24T01:19:43;3.85;;;1.27;;
21330;SDS011;10824;51.632;4.950;2023-08-24T01:22:27;1.88;;;1.00;;
21330;SDS011;10824;51.632;4.950;2023-08-24T01:25:18;4.38;;;1.40;;
21330;SDS011;10824;51.632;4.950;2023-08-24T01:27:55;2.95;;;1.27;;
21330;SDS011;10824;51.632;4.950;2023-08-24T01:30:22;4.35;;;2.00;;
21330;SDS011;10824;51.632;4.950;2023-08-24T01:32:49;3.05;;;1.38;;
21330;SDS011;10824;51.632;4.950;2023-08-24T01:35:16;2.10;;;1.38;;
21330;SDS011;10824;51.632;4.950;2023-08-24T01:37:43;3.70;;;1.73;;
21330;SDS011;10824;51.632;4.950;2023-08-24T01:40:13;1.92;;;1.35;;
21330;SDS011;10824;51.632;4.950;2023-08-24T01:42:56;3.60;;;1.63;;
21330;SDS011;10824;51.632;4.950;2023-08-24T01:45:29;3.80;;;1.90;;
21330;SDS011;10824;51.632;4.950;2023-08-24T01:48:02;4.00;;;1.23;;
21330;SDS011;10824;51.632;4.950;2023-08-24T01:52:57;2.70;;;1.10;;
21330;SDS011;10824;51.632;4.950;2023-08-24T01:55:25;2.30;;;1.20;;
21330;SDS011;10824;51.632;4.950;2023-08-24T01:57:52;3.00;;;1.20;;
21330;SDS011;10824;51.632;4.950;2023-08-24T02:00:19;3.38;;;2.33;;
21330;SDS011;10824;51.632;4.950;2023-08-24T02:02:46;3.00;;;1.58;;
21330;SDS011;10824;51.632;4.950;2023-08-24T02:05:13;3.17;;;1.67;;
21330;SDS011;10824;51.632;4.950;2023-08-24T02:07:41;4.15;;;1.38;;
21330;SDS011;10824;51.632;4.950;2023-08-24T02:10:08;3.03;;;1.55;;
21330;SDS011;10824;51.632;4.950;2023-08-24T02:12:35;3.33;;;1.80;;
21330;SDS011;10824;51.632;4.950;2023-08-24T02:15:02;6.15;;;1.73;;
21330;SDS011;10824;51.632;4.950;2023-08-24T02:17:29;1.90;;;1.25;;
21330;SDS011;10824;51.632;4.950;2023-08-24T02:19:56;5.80;;;2.65;;
21330;SDS011;10824;51.632;4.950;2023-08-24T02:22:23;3.15;;;1.50;;
21330;SDS011;10824;51.632;4.950;2023-08-24T02:24:50;2.47;;;0.98;;
21330;SDS011;10824;51.632;4.950;2023-08-24T02:27:17;3.85;;;1.40;;
21330;SDS011;10824;51.632;4.950;2023-08-24T02:29:44;3.30;;;1.50;;
21330;SDS011;10824;51.632;4.950;2023-08-24T02:32:14;3.70;;;1.50;;
21330;SDS011;10824;51.632;4.950;2023-08-24T02:34:43;2.90;;;1.70;;
21330;SDS011;10824;51.632;4.950;2023-08-24T02:37:10;6.40;;;1.75;;
21330;SDS011;10824;51.632;4.950;2023-08-24T02:39:37;3.65;;;1.85;;
21330;SDS011;10824;51.632;4.950;2023-08-24T02:42:04;2.35;;;1.13;;
21330;SDS011;10824;51.632;4.950;2023-08-24T02:44:31;4.60;;;1.75;;
21330;SDS011;10824;51.632;4.950;2023-08-24T02:46:58;4.53;;;2.50;;
21330;SDS011;10824;51.632;4.950;2023-08-24T02:49:25;4.32;;;1.88;;
21330;SDS011;10824;51.632;4.950;2023-08-24T02:51:52;4.78;;;1.77;;
21330;SDS011;10824;51.632;4.950;2023-08-24T02:54:19;3.08;;;1.73;;
21330;SDS011;10824;51.632;4.950;2023-08-24T02:56:48;3.58;;;1.77;;
21330;SDS011;10824;51.632;4.950;2023-08-24T02:59:15;5.20;;;2.00;;
21330;SDS011;10824;51.632;4.950;2023-08-24T03:01:42;6.10;;;2.10;;
21330;SDS011;10824;51.632;4.950;2023-08-24T03:04:09;6.13;;;2.45;;
21330;SDS011;10824;51.632;4.950;2023-08-24T03:06:37;3.90;;;1.75;;
21330;SDS011;10824;51.632;4.950;2023-08-24T03:09:03;7.00;;;2.58;;
21330;SDS011;10824;51.632;4.950;2023-08-24T03:11:31;4.68;;;2.28;;
21330;SDS011;10824;51.632;4.950;2023-08-24T03:13:58;6.03;;;2.20;;
21330;SDS011;10824;51.632;4.950;2023-08-24T03:16:27;4.20;;;2.22;;
21330;SDS011;10824;51.632;4.950;2023-08-24T03:18:55;8.35;;;2.63;;
21330;SDS011;10824;51.632;4.950;2023-08-24T03:21:22;3.22;;;1.83;;
21330;SDS011;10824;51.632;4.950;2023-08-24T03:23:49;4.43;;;2.28;;
21330;SDS011;10824;51.632;4.950;2023-08-24T03:26:18;6.78;;;2.75;;
21330;SDS011;10824;51.632;4.950;2023-08-24T03:28:46;3.92;;;1.92;;
21330;SDS011;10824;51.632;4.950;2023-08-24T03:31:14;3.65;;;2.38;;
21330;SDS011;10824;51.632;4.950;2023-08-24T03:33:41;4.68;;;2.30;;
21330;SDS011;10824;51.632;4.950;2023-08-24T03:36:09;4.40;;;2.35;;
21330;SDS011;10824;51.632;4.950;2023-08-24T03:38:36;3.88;;;2.47;;
21330;SDS011;10824;51.632;4.950;2023-08-24T03:41:04;3.75;;;1.80;;
21330;SDS011;10824;51.632;4.950;2023-08-24T03:43:33;3.17;;;2.15;;
21330;SDS011;10824;51.632;4.950;2023-08-24T03:46:01;2.67;;;2.35;;
21330;SDS011;10824;51.632;4.950;2023-08-24T03:48:31;5.72;;;2.38;;
21330;SDS011;10824;51.632;4.950;2023-08-24T03:50:59;4.35;;;1.77;;
21330;SDS011;10824;51.632;4.950;2023-08-24T03:53:26;4.97;;;2.33;;
21330;SDS011;10824;51.632;4.950;2023-08-24T03:55:53;5.72;;;2.40;;
21330;SDS011;10824;51.632;4.950;2023-08-24T03:58:20;6.85;;;2.35;;
21330;SDS011;10824;51.632;4.950;2023-08-24T04:00:47;4.50;;;2.80;;
21330;SDS011;10824;51.632;4.950;2023-08-24T04:03:14;4.82;;;2.65;;
21330;SDS011;10824;51.632;4.950;2023-08-24T04:05:42;3.75;;;2.38;;
21330;SDS011;10824;51.632;4.950;2023-08-24T04:08:09;6.47;;;2.50;;
21330;SDS011;10824;51.632;4.950;2023-08-24T04:10:37;5.03;;;2.72;;
21330;SDS011;10824;51.632;4.950;2023-08-24T04:13:05;4.50;;;2.60;;
21330;SDS011;10824;51.632;4.950;2023-08-24T04:15:32;5.60;;;2.40;;
21330;SDS011;10824;51.632;4.950;2023-08-24T04:18:00;4.32;;;2.13;;
21330;SDS011;10824;51.632;4.950;2023-08-24T04:20:27;4.82;;;2.85;;
21330;SDS011;10824;51.632;4.950;2023-08-24T04:22:54;4.18;;;2.30;;
21330;SDS011;10824;51.632;4.950;2023-08-24T04:25:22;4.28;;;2.63;;
21330;SDS011;10824;51.632;4.950;2023-08-24T04:27:49;5.05;;;2.35;;
21330;SDS011;10824;51.632;4.950;2023-08-24T04:30:17;5.45;;;2.38;;
21330;SDS011;10824;51.632;4.950;2023-08-24T04:32:44;6.88;;;3.22;;
21330;SDS011;10824;51.632;4.950;2023-08-24T04:35:11;5.10;;;2.40;;
21330;SDS011;10824;51.632;4.950;2023-08-24T04:37:38;3.53;;;2.22;;
21330;SDS011;10824;51.632;4.950;2023-08-24T04:40:06;4.72;;;2.38;;
21330;SDS011;10824;51.632;4.950;2023-08-24T04:42:37;7.63;;;2.83;;
21330;SDS011;10824;51.632;4.950;2023-08-24T04:45:04;6.30;;;2.53;;
21330;SDS011;10824;51.632;4.950;2023-08-24T04:47:31;4.05;;;2.45;;
21330;SDS011;10824;51.632;4.950;2023-08-24T04:49:59;5.32;;;2.55;;
21330;SDS011;10824;51.632;4.950;2023-08-24T04:52:26;5.40;;;2.70;;
21330;SDS011;10824;51.632;4.950;2023-08-24T04:54:53;6.65;;;3.17;;
21330;SDS011;10824;51.632;4.950;2023-08-24T04:57:21;7.25;;;3.10;;
21330;SDS011;10824;51.632;4.950;2023-08-24T04:59:51;6.10;;;3.72;;
21330;SDS011;10824;51.632;4.950;2023-08-24T05:02:18;5.03;;;2.72;;
21330;SDS011;10824;51.632;4.950;2023-08-24T05:04:45;7.10;;;3.33;;
21330;SDS011;10824;51.632;4.950;2023-08-24T05:07:13;7.15;;;3.28;;
21330;SDS011;10824;51.632;4.950;2023-08-24T05:09:40;5.72;;;2.85;;
21330;SDS011;10824;51.632;4.950;2023-08-24T05:12:07;7.78;;;2.85;;
21330;SDS011;10824;51.632;4.950;2023-08-24T05:14:34;5.85;;;2.92;;
21330;SDS011;10824;51.632;4.950;2023-08-24T05:17:02;5.40;;;2.95;;
21330;SDS011;10824;51.632;4.950;2023-08-24T05:19:29;6.53;;;2.72;;
21330;SDS011;10824;51.632;4.950;2023-08-24T05:21:56;5.88;;;3.58;;
21330;SDS011;10824;51.632;4.950;2023-08-24T05:24:23;5.97;;;2.80;;
21330;SDS011;10824;51.632;4.950;2023-08-24T05:26:50;6.95;;;3.50;;
21330;SDS011;10824;51.632;4.950;2023-08-24T05:29:17;7.03;;;3.25;;
21330;SDS011;10824;51.632;4.950;2023-08-24T05:31:43;7.05;;;3.08;;
21330;SDS011;10824;51.632;4.950;2023-08-24T05:34:10;4.82;;;2.67;;
21330;SDS011;10824;51.632;4.950;2023-08-24T05:36:38;7.80;;;4.40;;
21330;SDS011;10824;51.632;4.950;2023-08-24T05:39:05;4.93;;;2.88;;
21330;SDS011;10824;51.632;4.950;2023-08-24T05:41:33;5.07;;;3.10;;
21330;SDS011;10824;51.632;4.950;2023-08-24T05:44:00;6.93;;;3.42;;
21330;SDS011;10824;51.632;4.950;2023-08-24T05:46:27;5.20;;;2.95;;
21330;SDS011;10824;51.632;4.950;2023-08-24T05:48:55;5.20;;;3.25;;
21330;SDS011;10824;51.632;4.950;2023-08-24T05:51:27;8.38;;;4.07;;
21330;SDS011;10824;51.632;4.950;2023-08-24T05:54:03;6.40;;;3.63;;
21330;SDS011;10824;51.632;4.950;2023-08-24T05:56:31;6.72;;;3.42;;
21330;SDS011;10824;51.632;4.950;2023-08-24T05:59:01;6.32;;;3.80;;
21330;SDS011;10824;51.632;4.950;2023-08-24T06:01:31;7.53;;;3.50;;
21330;SDS011;10824;51.632;4.950;2023-08-24T06:03:59;6.65;;;2.88;;
21330;SDS011;10824;51.632;4.950;2023-08-24T06:06:26;7.47;;;3.53;;
21330;SDS011;10824;51.632;4.950;2023-08-24T06:08:53;10.80;;;4.43;;
21330;SDS011;10824;51.632;4.950;2023-08-24T06:11:20;7.15;;;3.35;;
21330;SDS011;10824;51.632;4.950;2023-08-24T06:14:52;8.57;;;4.07;;
21330;SDS011;10824;51.632;4.950;2023-08-24T06:17:22;9.63;;;5.43;;
21330;SDS011;10824;51.632;4.950;2023-08-24T06:19:50;8.63;;;3.92;;
21330;SDS011;10824;51.632;4.950;2023-08-24T06:22:16;8.20;;;4.50;;
21330;SDS011;10824;51.632;4.950;2023-08-24T06:24:45;7.55;;;3.47;;
21330;SDS011;10824;51.632;4.950;2023-08-24T06:27:12;8.25;;;3.78;;
21330;SDS011;10824;51.632;4.950;2023-08-24T06:29:42;13.45;;;4.28;;
21330;SDS011;10824;51.632;4.950;2023-08-24T06:32:09;7.72;;;4.57;;
21330;SDS011;10824;51.632;4.950;2023-08-24T06:34:37;9.10;;;3.97;;
21330;SDS011;10824;51.632;4.950;2023-08-24T06:37:04;11.30;;;6.15;;
21330;SDS011;10824;51.632;4.950;2023-08-24T06:39:31;11.55;;;4.95;;
21330;SDS011;10824;51.632;4.950;2023-08-24T06:41:58;8.23;;;4.15;;
21330;SDS011;10824;51.632;4.950;2023-08-24T06:44:28;8.70;;;4.45;;
21330;SDS011;10824;51.632;4.950;2023-08-24T06:46:55;11.32;;;5.55;;
21330;SDS011;10824;51.632;4.950;2023-08-24T06:49:22;11.85;;;4.93;;
21330;SDS011;10824;51.632;4.950;2023-08-24T06:51:49;12.73;;;4.57;;
21330;SDS011;10824;51.632;4.950;2023-08-24T06:54:16;8.35;;;4.53;;
21330;SDS011;10824;51.632;4.950;2023-08-24T06:56:43;7.85;;;4.70;;
21330;SDS011;10824;51.632;4.950;2023-08-24T06:59:10;7.47;;;4.70;;
21330;SDS011;10824;51.632;4.950;2023-08-24T07:01:39;11.32;;;5.15;;
21330;SDS011;10824;51.632;4.950;2023-08-24T07:04:07;8.95;;;4.43;;
21330;SDS011;10824;51.632;4.950;2023-08-24T07:06:34;14.00;;;5.32;;
21330;SDS011;10824;51.632;4.950;2023-08-24T07:09:01;11.90;;;4.82;;
21330;SDS011;10824;51.632;4.950;2023-08-24T07:11:32;10.10;;;5.13;;
21330;SDS011;10824;51.632;4.950;2023-08-24T07:14:00;11.50;;;5.72;;
21330;SDS011;10824;51.632;4.950;2023-08-24T07:16:27;10.52;;;5.68;;
21330;SDS011;10824;51.632;4.950;2023-08-24T07:18:54;10.10;;;5.55;;
21330;SDS011;10824;51.632;4.950;2023-08-24T07:21:21;13.55;;;5.82;;
21330;SDS011;10824;51.632;4.950;2023-08-24T07:23:48;8.82;;;4.15;;
21330;SDS011;10824;51.632;4.950;2023-08-24T07:26:15;8.43;;;5.50;;
21330;SDS011;10824;51.632;4.950;2023-08-24T07:28:42;8.73;;;4.35;;
21330;SDS011;10824;51.632;4.950;2023-08-24T07:31:09;7.28;;;3.58;;
21330;SDS011;10824;51.632;4.950;2023-08-24T07:33:40;9.57;;;4.47;;
21330;SDS011;10824;51.632;4.950;2023-08-24T07:36:10;7.55;;;3.85;;
21330;SDS011;10824;51.632;4.950;2023-08-24T07:38:37;9.75;;;4.95;;
21330;SDS011;10824;51.632;4.950;2023-08-24T07:41:04;12.32;;;4.63;;
21330;SDS011;10824;51.632;4.950;2023-08-24T07:43:32;8.80;;;4.82;;
21330;SDS011;10824;51.632;4.950;2023-08-24T07:46:00;8.05;;;4.15;;
21330;SDS011;10824;51.632;4.950;2023-08-24T07:48:29;6.72;;;3.58;;
21330;SDS011;10824;51.632;4.950;2023-08-24T07:50:59;13.00;;;4.72;;
21330;SDS011;10824;51.632;4.950;2023-08-24T07:53:26;10.15;;;4.90;;
21330;SDS011;10824;51.632;4.950;2023-08-24T07:55:54;7.90;;;3.70;;
21330;SDS011;10824;51.632;4.950;2023-08-24T07:58:24;7.03;;;3.90;;
21330;SDS011;10824;51.632;4.950;2023-08-24T08:00:52;10.13;;;4.13;;
21330;SDS011;10824;51.632;4.950;2023-08-24T08:03:19;7.22;;;3.80;;
21330;SDS011;10824;51.632;4.950;2023-08-24T08:05:47;9.75;;;3.90;;
21330;SDS011;10824;51.632;4.950;2023-08-24T08:08:14;9.98;;;3.35;;
21330;SDS011;10824;51.632;4.950;2023-08-24T08:10:42;6.78;;;3.92;;
21330;SDS011;10824;51.632;4.950;2023-08-24T08:13:09;12.65;;;5.20;;
21330;SDS011;10824;51.632;4.950;2023-08-24T08:15:39;8.20;;;4.20;;
21330;SDS011;10824;51.632;4.950;2023-08-24T08:18:06;8.05;;;3.22;;
21330;SDS011;10824;51.632;4.950;2023-08-24T08:20:33;7.97;;;4.10;;
21330;SDS011;10824;51.632;4.950;2023-08-24T08:23:01;10.40;;;4.03;;
21330;SDS011;10824;51.632;4.950;2023-08-24T08:25:28;10.65;;;5.13;;
21330;SDS011;10824;51.632;4.950;2023-08-24T08:27:55;7.50;;;4.00;;
21330;SDS011;10824;51.632;4.950;2023-08-24T08:30:22;8.57;;;3.90;;
21330;SDS011;10824;51.632;4.950;2023-08-24T08:32:49;7.30;;;4.05;;
21330;SDS011;10824;51.632;4.950;2023-08-24T08:35:22;6.97;;;3.40;;
21330;SDS011;10824;51.632;4.950;2023-08-24T08:37:49;9.18;;;4.20;;
21330;SDS011;10824;51.632;4.950;2023-08-24T08:40:17;6.60;;;3.53;;
21330;SDS011;10824;51.632;4.950;2023-08-24T08:42:44;11.23;;;4.15;;
21330;SDS011;10824;51.632;4.950;2023-08-24T08:45:13;10.60;;;3.80;;
21330;SDS011;10824;51.632;4.950;2023-08-24T08:47:41;7.38;;;4.32;;
21330;SDS011;10824;51.632;4.950;2023-08-24T08:50:08;7.68;;;3.95;;
21330;SDS011;10824;51.632;4.950;2023-08-24T08:52:36;6.85;;;3.60;;
21330;SDS011;10824;51.632;4.950;2023-08-24T08:55:03;7.93;;;3.85;;
21330;SDS011;10824;51.632;4.950;2023-08-24T08:57:33;7.78;;;3.13;;
21330;SDS011;10824;51.632;4.950;2023-08-24T09:00:00;5.47;;;3.08;;
21330;SDS011;10824;51.632;4.950;2023-08-24T09:02:28;6.32;;;3.78;;
21330;SDS011;10824;51.632;4.950;2023-08-24T09:04:58;9.07;;;3.20;;
21330;SDS011;10824;51.632;4.950;2023-08-24T09:07:25;7.65;;;3.95;;
21330;SDS011;10824;51.632;4.950;2023-08-24T09:09:52;8.80;;;3.70;;
21330;SDS011;10824;51.632;4.950;2023-08-24T09:12:20;7.57;;;3.13;;
21330;SDS011;10824;51.632;4.950;2023-08-24T09:14:50;5.70;;;3.63;;
21330;SDS011;10824;51.632;4.950;2023-08-24T09:17:20;13.80;;;4.45;;
21330;SDS011;10824;51.632;4.950;2023-08-24T09:19:49;15.88;;;5.22;;
21330;SDS011;10824;51.632;4.950;2023-08-24T09:22:18;13.80;;;4.13;;
21330;SDS011;10824;51.632;4.950;2023-08-24T09:24:48;5.05;;;2.95;;
21330;SDS011;10824;51.632;4.950;2023-08-24T09:27:17;5.95;;;3.10;;
21330;SDS011;10824;51.632;4.950;2023-08-24T09:29:49;4.82;;;2.85;;
21330;SDS011;10824;51.632;4.950;2023-08-24T09:32:50;5.72;;;2.90;;
21330;SDS011;10824;51.632;4.950;2023-08-24T09:35:11;9.63;;;4.05;;
21330;SDS011;10824;51.632;4.950;2023-08-24T09:37:39;11.80;;;5.30;;
21330;SDS011;10824;51.632;4.950;2023-08-24T09:40:08;6.55;;;3.30;;
21330;SDS011;10824;51.632;4.950;2023-08-24T09:42:39;9.45;;;4.32;;
21330;SDS011;10824;51.632;4.950;2023-08-24T09:45:11;7.18;;;3.25;;
21330;SDS011;10824;51.632;4.950;2023-08-24T09:47:50;5.90;;;2.88;;
21330;SDS011;10824;51.632;4.950;2023-08-24T09:50:20;5.78;;;3.20;;
21330;SDS011;10824;51.632;4.950;2023-08-24T09:52:48;8.63;;;3.35;;
21330;SDS011;10824;51.632;4.950;2023-08-24T09:55:20;9.13;;;3.38;;
21330;SDS011;10824;51.632;4.950;2023-08-24T09:57:51;7.72;;;3.30;;
21330;SDS011;10824;51.632;4.950;2023-08-24T10:00:21;5.30;;;3.00;;
21330;SDS011;10824;51.632;4.950;2023-08-24T10:02:53;5.43;;;3.05;;
21330;SDS011;10824;51.632;4.950;2023-08-24T10:05:24;6.57;;;3.50;;
21330;SDS011;10824;51.632;4.950;2023-08-24T10:07:57;8.88;;;3.33;;
21330;SDS011;10824;51.632;4.950;2023-08-24T10:10:25;7.28;;;3.70;;
21330;SDS011;10824;51.632;4.950;2023-08-24T10:12:57;6.45;;;3.10;;
21330;SDS011;10824;51.632;4.950;2023-08-24T10:15:29;7.13;;;2.90;;
21330;SDS011;10824;51.632;4.950;2023-08-24T10:17:57;5.70;;;2.78;;
21330;SDS011;10824;51.632;4.950;2023-08-24T10:20:25;6.25;;;3.33;;
21330;SDS011;10824;51.632;4.950;2023-08-24T10:22:53;8.63;;;3.47;;
21330;SDS011;10824;51.632;4.950;2023-08-24T10:25:22;7.88;;;3.70;;
21330;SDS011;10824;51.632;4.950;2023-08-24T10:27:52;6.43;;;3.58;;
21330;SDS011;10824;51.632;4.950;2023-08-24T10:30:20;11.50;;;3.78;;
21330;SDS011;10824;51.632;4.950;2023-08-24T10:32:48;5.80;;;3.85;;
21330;SDS011;10824;51.632;4.950;2023-08-24T10:35:20;8.25;;;4.13;;
21330;SDS011;10824;51.632;4.950;2023-08-24T10:37:51;11.65;;;4.97;;
21330;SDS011;10824;51.632;4.950;2023-08-24T10:40:40;6.32;;;3.75;;
21330;SDS011;10824;51.632;4.950;2023-08-24T10:43:10;6.97;;;3.28;;
21330;SDS011;10824;51.632;4.950;2023-08-24T10:45:56;9.38;;;3.50;;
21330;SDS011;10824;51.632;4.950;2023-08-24T10:48:26;5.18;;;3.42;;
21330;SDS011;10824;51.632;4.950;2023-08-24T10:56:29;7.25;;;3.40;;
21330;SDS011;10824;51.632;4.950;2023-08-24T10:59:09;9.45;;;3.83;;
21330;SDS011;10824;51.632;4.950;2023-08-24T11:01:40;8.85;;;4.32;;
21330;SDS011;10824;51.632;4.950;2023-08-24T11:04:23;7.32;;;4.55;;
21330;SDS011;10824;51.632;4.950;2023-08-24T11:06:56;8.23;;;4.05;;
21330;SDS011;10824;51.632;4.950;2023-08-24T11:09:46;11.45;;;5.38;;
21330;SDS011;10824;51.632;4.950;2023-08-24T11:12:15;13.15;;;4.82;;
21330;SDS011;10824;51.632;4.950;2023-08-24T11:14:49;14.70;;;4.30;;
21330;SDS011;10824;51.632;4.950;2023-08-24T11:17:26;6.20;;;3.58;;
21330;SDS011;10824;51.632;4.950;2023-08-24T11:20:00;9.63;;;4.22;;
21330;SDS011;10824;51.632;4.950;2023-08-24T11:22:31;7.07;;;4.47;;
21330;SDS011;10824;51.632;4.950;2023-08-24T11:24:58;7.93;;;3.78;;
21330;SDS011;10824;51.632;4.950;2023-08-24T11:27:26;7.53;;;3.67;;
21330;SDS011;10824;51.632;4.950;2023-08-24T11:29:57;8.52;;;3.80;;
21330;SDS011;10824;51.632;4.950;2023-08-24T11:32:26;9.05;;;4.57;;
21330;SDS011;10824;51.632;4.950;2023-08-24T11:34:53;8.40;;;3.95;;
21330;SDS011;10824;51.632;4.950;2023-08-24T11:37:21;7.00;;;3.15;;
21330;SDS011;10824;51.632;4.950;2023-08-24T11:39:48;6.45;;;3.50;;
21330;SDS011;10824;51.632;4.950;2023-08-24T11:42:15;6.95;;;3.90;;
21330;SDS011;10824;51.632;4.950;2023-08-24T11:44:46;8.63;;;4.57;;
21330;SDS011;10824;51.632;4.950;2023-08-24T11:49:46;10.02;;;5.13;;
21330;SDS011;10824;51.632;4.950;2023-08-24T11:52:13;7.55;;;4.38;;
21330;SDS011;10824;51.632;4.950;2023-08-24T11:54:42;5.10;;;3.08;;
21330;SDS011;10824;51.632;4.950;2023-08-24T11:57:10;9.55;;;3.20;;
21330;SDS011;10824;51.632;4.950;2023-08-24T11:59:38;6.10;;;3.10;;
21330;SDS011;10824;51.632;4.950;2023-08-24T12:02:06;6.60;;;3.63;;
21330;SDS011;10824;51.632;4.950;2023-08-24T12:04:40;6.03;;;2.67;;
21330;SDS011;10824;51.632;4.950;2023-08-24T12:07:10;7.28;;;3.00;;
21330;SDS011;10824;51.632;4.950;2023-08-24T12:09:41;7.80;;;3.72;;
21330;SDS011;10824;51.632;4.950;2023-08-24T12:12:15;8.07;;;3.28;;
21330;SDS011;10824;51.632;4.950;2023-08-24T12:14:45;4.47;;;2.67;;
21330;SDS011;10824;51.632;4.950;2023-08-24T12:17:14;8.63;;;3.47;;
21330;SDS011;10824;51.632;4.950;2023-08-24T12:19:43;7.13;;;3.13;;
21330;SDS011;10824;51.632;4.950;2023-08-24T12:22:19;7.57;;;3.13;;
21330;SDS011;10824;51.632;4.950;2023-08-24T12:24:46;6.35;;;2.40;;
21330;SDS011;10824;51.632;4.950;2023-08-24T12:27:20;3.63;;;2.22;;
21330;SDS011;10824;51.632;4.950;2023-08-24T12:29:53;4.43;;;2.10;;
21330;SDS011;10824;51.632;4.950;2023-08-24T12:32:20;4.68;;;1.98;;
21330;SDS011;10824;51.632;4.950;2023-08-24T12:34:52;4.38;;;2.08;;
21330;SDS011;10824;51.632;4.950;2023-08-24T12:37:21;6.53;;;2.88;;
21330;SDS011;10824;51.632;4.950;2023-08-24T12:39:48;7.35;;;2.45;;
21330;SDS011;10824;51.632;4.950;2023-08-24T12:42:15;8.73;;;2.28;;
21330;SDS011;10824;51.632;4.950;2023-08-24T12:44:42;6.40;;;2.90;;
21330;SDS011;10824;51.632;4.950;2023-08-24T12:47:09;7.25;;;2.42;;
21330;SDS011;10824;51.632;4.950;2023-08-24T12:49:36;4.95;;;2.40;;
21330;SDS011;10824;51.632;4.950;2023-08-24T12:52:04;3.15;;;2.20;;
21330;SDS011;10824;51.632;4.950;2023-08-24T12:54:33;4.75;;;2.22;;
21330;SDS011;10824;51.632;4.950;2023-08-24T12:57:00;4.75;;;2.63;;
21330;SDS011;10824;51.632;4.950;2023-08-24T12:59:27;5.18;;;2.25;;
21330;SDS011;10824;51.632;4.950;2023-08-24T13:01:54;6.57;;;2.40;;
21330;SDS011;10824;51.632;4.950;2023-08-24T13:04:21;4.13;;;2.65;;
21330;SDS011;10824;51.632;4.950;2023-08-24T13:06:48;5.88;;;2.40;;
21330;SDS011;10824;51.632;4.950;2023-08-24T13:09:15;8.80;;;2.63;;
21330;SDS011;10824;51.632;4.950;2023-08-24T13:11:43;20.23;;;3.08;;
21330;SDS011;10824;51.632;4.950;2023-08-24T13:14:10;3.58;;;1.90;;
21330;SDS011;10824;51.632;4.950;2023-08-24T13:16:37;5.78;;;2.78;;
21330;SDS011;10824;51.632;4.950;2023-08-24T13:19:04;3.90;;;2.10;;
21330;SDS011;10824;51.632;4.950;2023-08-24T13:21:31;3.95;;;1.60;;
21330;SDS011;10824;51.632;4.950;2023-08-24T13:23:59;3.90;;;1.65;;
21330;SDS011;10824;51.632;4.950;2023-08-24T13:26:26;3.47;;;1.67;;
21330;SDS011;10824;51.632;4.950;2023-08-24T13:28:53;2.67;;;1.48;;
21330;SDS011;10824;51.632;4.950;2023-08-24T13:31:20;4.45;;;1.92;;
21330;SDS011;10824;51.632;4.950;2023-08-24T13:33:48;3.95;;;2.50;;
21330;SDS011;10824;51.632;4.950;2023-08-24T13:36:15;3.83;;;2.40;;
21330;SDS011;10824;51.632;4.950;2023-08-24T13:38:43;3.97;;;1.92;;
21330;SDS011;10824;51.632;4.950;2023-08-24T13:41:10;6.57;;;2.08;;
21330;SDS011;10824;51.632;4.950;2023-08-24T13:43:38;4.07;;;2.22;;
21330;SDS011;10824;51.632;4.950;2023-08-24T13:46:06;3.92;;;1.60;;
21330;SDS011;10824;51.632;4.950;2023-08-24T13:48:33;6.43;;;2.58;;
21330;SDS011;10824;51.632;4.950;2023-08-24T13:51:01;5.90;;;2.53;;
21330;SDS011;10824;51.632;4.950;2023-08-24T13:53:28;3.35;;;1.50;;
21330;SDS011;10824;51.632;4.950;2023-08-24T13:55:55;5.75;;;1.70;;
21330;SDS011;10824;51.632;4.950;2023-08-24T13:58:22;4.90;;;2.50;;
21330;SDS011;10824;51.632;4.950;2023-08-24T14:00:56;7.63;;;1.95;;
21330;SDS011;10824;51.632;4.950;2023-08-24T14:03:24;2.70;;;1.67;;
21330;SDS011;10824;51.632;4.950;2023-08-24T14:05:55;5.63;;;1.55;;
21330;SDS011;10824;51.632;4.950;2023-08-24T14:08:23;5.15;;;2.00;;
21330;SDS011;10824;51.632;4.950;2023-08-24T14:10:54;2.67;;;1.42;;
21330;SDS011;10824;51.632;4.950;2023-08-24T14:13:21;6.72;;;1.35;;
21330;SDS011;10824;51.632;4.950;2023-08-24T14:15:49;6.80;;;2.05;;
21330;SDS011;10824;51.632;4.950;2023-08-24T14:18:16;3.25;;;1.17;;
21330;SDS011;10824;51.632;4.950;2023-08-24T14:20:46;5.35;;;1.20;;
21330;SDS011;10824;51.632;4.950;2023-08-24T14:23:13;6.90;;;1.45;;
21330;SDS011;10824;51.632;4.950;2023-08-24T14:25:40;10.95;;;3.38;;
21330;SDS011;10824;51.632;4.950;2023-08-24T14:28:07;3.72;;;1.60;;
21330;SDS011;10824;51.632;4.950;2023-08-24T14:30:38;3.40;;;1.58;;
21330;SDS011;10824;51.632;4.950;2023-08-24T14:33:06;2.97;;;0.95;;
21330;SDS011;10824;51.632;4.950;2023-08-24T14:35:33;1.63;;;0.73;;
21330;SDS011;10824;51.632;4.950;2023-08-24T14:38:00;1.48;;;0.88;;
21330;SDS011;10824;51.632;4.950;2023-08-24T14:40:27;2.38;;;1.00;;
21330;SDS011;10824;51.632;4.950;2023-08-24T14:42:54;1.30;;;0.90;;
21330;SDS011;10824;51.632;4.950;2023-08-24T14:45:21;4.43;;;1.65;;
21330;SDS011;10824;51.632;4.950;2023-08-24T14:47:48;1.73;;;0.95;;
21330;SDS011;10824;51.632;4.950;2023-08-24T14:50:16;1.98;;;0.98;;
21330;SDS011;10824;51.632;4.950;2023-08-24T14:52:44;1.42;;;0.77;;
21330;SDS011;10824;51.632;4.950;2023-08-24T14:55:11;2.88;;;0.82;;
21330;SDS011;10824;51.632;4.950;2023-08-24T14:57:39;7.13;;;2.30;;
21330;SDS011;10824;51.632;4.950;2023-08-24T15:00:07;2.20;;;1.10;;
21330;SDS011;10824;51.632;4.950;2023-08-24T15:02:36;2.28;;;1.08;;
21330;SDS011;10824;51.632;4.950;2023-08-24T15:05:04;4.78;;;2.22;;
21330;SDS011;10824;51.632;4.950;2023-08-24T15:07:31;2.95;;;1.10;;
21330;SDS011;10824;51.632;4.950;2023-08-24T15:09:58;3.50;;;0.60;;